sensor_id;sensor_type;location;lat;lon;timestamp;temperature;humidity
43561;DHT22;32305;46.410;17.394;2023-06-10T00:02:18;25.40;55.80
43561;DHT22;32305;46.410;17.394;2023-06-10T00:04:46;25.40;55.80
43561;DHT22;32305;46.410;17.394;2023-06-10T00:07:14;25.40;55.80
43561;DHT22;32305;46.410;17.394;2023-06-10T00:09:41;25.40;55.80
43561;DHT22;32305;46.410;17.394;2023-06-10T00:12:09;25.40;55.90
43561;DHT22;32305;46.410;17.394;2023-06-10T00:14:38;25.40;55.90
43561;DHT22;32305;46.410;17.394;2023-06-10T00:17:07;25.40;55.90
43561;DHT22;32305;46.410;17.394;2023-06-10T00:19:38;25.40;55.90
43561;DHT22;32305;46.410;17.394;2023-06-10T00:22:08;25.40;55.90
43561;DHT22;32305;46.410;17.394;2023-06-10T00:24:38;25.40;56.00
43561;DHT22;32305;46.410;17.394;2023-06-10T00:27:06;25.40;56.00
43561;DHT22;32305;46.410;17.394;2023-06-10T00:29:34;25.40;56.00
43561;DHT22;32305;46.410;17.394;2023-06-10T00:32:02;25.40;56.00
43561;DHT22;32305;46.410;17.394;2023-06-10T00:34:30;25.40;55.90
43561;DHT22;32305;46.410;17.394;2023-06-10T00:36:57;25.40;55.90
43561;DHT22;32305;46.410;17.394;2023-06-10T00:39:24;25.40;55.90
43561;DHT22;32305;46.410;17.394;2023-06-10T00:41:51;25.40;55.90
43561;DHT22;32305;46.410;17.394;2023-06-10T00:44:18;25.40;55.90
43561;DHT22;32305;46.410;17.394;2023-06-10T00:46:45;25.40;55.80
43561;DHT22;32305;46.410;17.394;2023-06-10T00:49:13;25.40;55.80
43561;DHT22;32305;46.410;17.394;2023-06-10T00:51:40;25.40;55.80
43561;DHT22;32305;46.410;17.394;2023-06-10T00:54:07;25.40;55.80
43561;DHT22;32305;46.410;17.394;2023-06-10T00:56:35;25.40;55.80
43561;DHT22;32305;46.410;17.394;2023-06-10T00:59:03;25.40;55.80
43561;DHT22;32305;46.410;17.394;2023-06-10T01:01:31;25.40;55.80
43561;DHT22;32305;46.410;17.394;2023-06-10T01:03:59;25.40;55.80
43561;DHT22;32305;46.410;17.394;2023-06-10T01:06:47;25.40;55.80
43561;DHT22;32305;46.410;17.394;2023-06-10T01:12:37;25.40;55.80
43561;DHT22;32305;46.410;17.394;2023-06-10T01:15:09;25.40;55.80
43561;DHT22;32305;46.410;17.394;2023-06-10T01:17:59;25.40;55.90
43561;DHT22;32305;46.410;17.394;2023-06-10T01:20:30;25.40;55.90
43561;DHT22;32305;46.410;17.394;2023-06-10T01:22:59;25.30;55.90
43561;DHT22;32305;46.410;17.394;2023-06-10T01:25:28;25.30;55.90
43561;DHT22;32305;46.410;17.394;2023-06-10T01:28:15;25.30;55.90
43561;DHT22;32305;46.410;17.394;2023-06-10T01:31:15;25.30;55.90
43561;DHT22;32305;46.410;17.394;2023-06-10T01:33:46;25.30;55.90
43561;DHT22;32305;46.410;17.394;2023-06-10T01:36:16;25.30;56.00
43561;DHT22;32305;46.410;17.394;2023-06-10T01:38:46;25.30;56.00
43561;DHT22;32305;46.410;17.394;2023-06-10T01:41:16;25.30;56.00
43561;DHT22;32305;46.410;17.394;2023-06-10T01:43:45;25.30;56.00
43561;DHT22;32305;46.410;17.394;2023-06-10T01:46:12;25.20;56.00
43561;DHT22;32305;46.410;17.394;2023-06-10T01:48:41;25.20;56.00
43561;DHT22;32305;46.410;17.394;2023-06-10T01:51:09;25.20;56.00
43561;DHT22;32305;46.410;17.394;2023-06-10T01:53:36;25.20;56.00
43561;DHT22;32305;46.410;17.394;2023-06-10T01:56:03;25.20;56.00
43561;DHT22;32305;46.410;17.394;2023-06-10T01:58:30;25.20;56.00
43561;DHT22;32305;46.410;17.394;2023-06-10T02:00:57;25.20;56.00
43561;DHT22;32305;46.410;17.394;2023-06-10T02:03:25;25.20;56.00
43561;DHT22;32305;46.410;17.394;2023-06-10T02:05:52;25.20;56.00
43561;DHT22;32305;46.410;17.394;2023-06-10T02:08:19;25.20;56.00
43561;DHT22;32305;46.410;17.394;2023-06-10T02:10:47;25.20;56.00
43561;DHT22;32305;46.410;17.394;2023-06-10T02:13:14;25.20;56.00
43561;DHT22;32305;46.410;17.394;2023-06-10T02:15:41;25.20;56.00
43561;DHT22;32305;46.410;17.394;2023-06-10T02:18:08;25.20;56.00
43561;DHT22;32305;46.410;17.394;2023-06-10T02:20:36;25.20;56.00
43561;DHT22;32305;46.410;17.394;2023-06-10T02:23:04;25.20;56.00
43561;DHT22;32305;46.410;17.394;2023-06-10T02:25:31;25.30;56.00
43561;DHT22;32305;46.410;17.394;2023-06-10T02:27:58;25.20;55.90
43561;DHT22;32305;46.410;17.394;2023-06-10T02:30:25;25.20;55.90
43561;DHT22;32305;46.410;17.394;2023-06-10T02:32:53;25.20;55.90
43561;DHT22;32305;46.410;17.394;2023-06-10T02:35:20;25.20;55.90
43561;DHT22;32305;46.410;17.394;2023-06-10T02:37:47;25.20;55.80
43561;DHT22;32305;46.410;17.394;2023-06-10T02:40:14;25.20;55.80
43561;DHT22;32305;46.410;17.394;2023-06-10T02:42:41;25.30;55.90
43561;DHT22;32305;46.410;17.394;2023-06-10T02:45:09;25.30;56.00
43561;DHT22;32305;46.410;17.394;2023-06-10T02:47:38;25.20;55.80
43561;DHT22;32305;46.410;17.394;2023-06-10T02:50:06;25.20;56.40
43561;DHT22;32305;46.410;17.394;2023-06-10T02:52:34;25.20;55.90
43561;DHT22;32305;46.410;17.394;2023-06-10T02:55:01;25.20;55.90
43561;DHT22;32305;46.410;17.394;2023-06-10T02:57:28;25.20;55.90
43561;DHT22;32305;46.410;17.394;2023-06-10T02:59:55;25.20;55.90
43561;DHT22;32305;46.410;17.394;2023-06-10T03:02:22;25.20;55.90
43561;DHT22;32305;46.410;17.394;2023-06-10T03:04:55;25.20;56.00
43561;DHT22;32305;46.410;17.394;2023-06-10T03:07:23;25.20;56.00
43561;DHT22;32305;46.410;17.394;2023-06-10T03:09:50;25.20;56.00
43561;DHT22;32305;46.410;17.394;2023-06-10T03:12:17;25.20;56.00
43561;DHT22;32305;46.410;17.394;2023-06-10T03:14:44;25.20;56.50
43561;DHT22;32305;46.410;17.394;2023-06-10T03:17:11;25.20;56.00
43561;DHT22;32305;46.410;17.394;2023-06-10T03:19:39;25.20;56.00
43561;DHT22;32305;46.410;17.394;2023-06-10T03:22:14;25.20;56.00
43561;DHT22;32305;46.410;17.394;2023-06-10T03:24:41;25.20;55.90
43561;DHT22;32305;46.410;17.394;2023-06-10T03:27:10;25.20;55.90
43561;DHT22;32305;46.410;17.394;2023-06-10T03:29:37;25.20;55.90
43561;DHT22;32305;46.410;17.394;2023-06-10T03:32:05;25.20;55.90
43561;DHT22;32305;46.410;17.394;2023-06-10T03:34:33;25.20;55.90
43561;DHT22;32305;46.410;17.394;2023-06-10T03:37:00;25.20;55.90
43561;DHT22;32305;46.410;17.394;2023-06-10T03:39:27;25.20;55.90
43561;DHT22;32305;46.410;17.394;2023-06-10T03:41:56;25.20;55.80
43561;DHT22;32305;46.410;17.394;2023-06-10T03:44:27;25.20;55.80
43561;DHT22;32305;46.410;17.394;2023-06-10T03:46:55;25.20;55.70
43561;DHT22;32305;46.410;17.394;2023-06-10T03:49:23;25.30;55.70
43561;DHT22;32305;46.410;17.394;2023-06-10T03:51:53;25.30;56.20
43561;DHT22;32305;46.410;17.394;2023-06-10T03:54:21;25.30;55.60
43561;DHT22;32305;46.410;17.394;2023-06-10T03:56:48;25.30;55.60
43561;DHT22;32305;46.410;17.394;2023-06-10T03:59:15;25.30;55.50
43561;DHT22;32305;46.410;17.394;2023-06-10T04:01:43;25.40;55.50
43561;DHT22;32305;46.410;17.394;2023-06-10T04:04:14;25.40;55.50
43561;DHT22;32305;46.410;17.394;2023-06-10T04:06:43;25.40;55.40
43561;DHT22;32305;46.410;17.394;2023-06-10T04:09:11;25.40;55.40
43561;DHT22;32305;46.410;17.394;2023-06-10T04:11:39;25.40;55.30
43561;DHT22;32305;46.410;17.394;2023-06-10T04:14:06;25.40;55.30
43561;DHT22;32305;46.410;17.394;2023-06-10T04:16:34;25.40;55.20
43561;DHT22;32305;46.410;17.394;2023-06-10T04:19:02;25.40;55.20
43561;DHT22;32305;46.410;17.394;2023-06-10T04:21:29;25.40;55.10
43561;DHT22;32305;46.410;17.394;2023-06-10T04:23:56;25.40;55.10
43561;DHT22;32305;46.410;17.394;2023-06-10T04:26:24;25.50;55.10
43561;DHT22;32305;46.410;17.394;2023-06-10T04:28:52;25.50;55.10
43561;DHT22;32305;46.410;17.394;2023-06-10T04:31:19;25.50;55.10
43561;DHT22;32305;46.410;17.394;2023-06-10T04:33:47;25.50;55.10
43561;DHT22;32305;46.410;17.394;2023-06-10T04:36:14;25.50;55.00
43561;DHT22;32305;46.410;17.394;2023-06-10T04:38:41;25.40;55.00
43561;DHT22;32305;46.410;17.394;2023-06-10T04:41:09;25.40;55.10
43561;DHT22;32305;46.410;17.394;2023-06-10T04:43:36;25.20;55.30
43561;DHT22;32305;46.410;17.394;2023-06-10T04:46:04;25.00;55.50
43561;DHT22;32305;46.410;17.394;2023-06-10T04:48:34;24.70;55.10
43561;DHT22;32305;46.410;17.394;2023-06-10T04:51:02;24.40;54.60
43561;DHT22;32305;46.410;17.394;2023-06-10T04:53:30;24.10;54.10
43561;DHT22;32305;46.410;17.394;2023-06-10T04:55:57;23.70;53.90
43561;DHT22;32305;46.410;17.394;2023-06-10T04:58:24;23.40;53.80
43561;DHT22;32305;46.410;17.394;2023-06-10T05:00:52;23.00;54.30
43561;DHT22;32305;46.410;17.394;2023-06-10T05:03:19;22.70;55.20
43561;DHT22;32305;46.410;17.394;2023-06-10T05:05:46;22.40;55.90
43561;DHT22;32305;46.410;17.394;2023-06-10T05:08:13;22.10;55.90
43561;DHT22;32305;46.410;17.394;2023-06-10T05:10:40;21.80;56.50
43561;DHT22;32305;46.410;17.394;2023-06-10T05:13:07;21.70;57.80
43561;DHT22;32305;46.410;17.394;2023-06-10T05:15:35;21.50;57.50
43561;DHT22;32305;46.410;17.394;2023-06-10T05:18:02;21.40;57.30
43561;DHT22;32305;46.410;17.394;2023-06-10T05:20:30;21.30;58.20
43561;DHT22;32305;46.410;17.394;2023-06-10T05:22:57;21.20;58.70
43561;DHT22;32305;46.410;17.394;2023-06-10T05:25:26;21.00;57.80
43561;DHT22;32305;46.410;17.394;2023-06-10T05:27:54;20.90;58.40
43561;DHT22;32305;46.410;17.394;2023-06-10T05:30:21;20.80;59.30
43561;DHT22;32305;46.410;17.394;2023-06-10T05:32:48;20.80;58.60
43561;DHT22;32305;46.410;17.394;2023-06-10T05:35:16;20.70;58.50
43561;DHT22;32305;46.410;17.394;2023-06-10T05:37:43;20.60;59.40
43561;DHT22;32305;46.410;17.394;2023-06-10T05:40:11;20.50;58.80
43561;DHT22;32305;46.410;17.394;2023-06-10T05:42:38;20.40;58.50
43561;DHT22;32305;46.410;17.394;2023-06-10T05:45:06;20.30;59.60
43561;DHT22;32305;46.410;17.394;2023-06-10T05:47:34;20.30;60.00
43561;DHT22;32305;46.410;17.394;2023-06-10T05:50:01;20.20;58.80
43561;DHT22;32305;46.410;17.394;2023-06-10T05:52:29;20.20;59.10
43561;DHT22;32305;46.410;17.394;2023-06-10T05:54:56;20.10;60.20
43561;DHT22;32305;46.410;17.394;2023-06-10T05:57:23;20.10;59.60
43561;DHT22;32305;46.410;17.394;2023-06-10T05:59:50;20.10;58.90
43561;DHT22;32305;46.410;17.394;2023-06-10T06:02:17;20.00;60.30
43561;DHT22;32305;46.410;17.394;2023-06-10T06:04:44;20.00;59.80
43561;DHT22;32305;46.410;17.394;2023-06-10T06:07:12;19.90;58.60
43561;DHT22;32305;46.410;17.394;2023-06-10T06:09:39;19.90;59.60
43561;DHT22;32305;46.410;17.394;2023-06-10T06:12:08;19.90;60.50
43561;DHT22;32305;46.410;17.394;2023-06-10T06:14:37;19.80;59.90
43561;DHT22;32305;46.410;17.394;2023-06-10T06:17:07;19.70;59.10
43561;DHT22;32305;46.410;17.394;2023-06-10T06:19:34;19.60;60.60
43561;DHT22;32305;46.410;17.394;2023-06-10T06:22:01;19.60;60.20
43561;DHT22;32305;46.410;17.394;2023-06-10T06:24:29;19.50;59.60
43561;DHT22;32305;46.410;17.394;2023-06-10T06:26:56;19.40;59.60
43561;DHT22;32305;46.410;17.394;2023-06-10T06:29:23;19.40;60.10
43561;DHT22;32305;46.410;17.394;2023-06-10T06:31:51;19.30;60.80
43561;DHT22;32305;46.410;17.394;2023-06-10T06:34:18;19.30;61.20
43561;DHT22;32305;46.410;17.394;2023-06-10T06:36:45;19.30;61.20
43561;DHT22;32305;46.410;17.394;2023-06-10T06:39:12;19.20;59.80
43561;DHT22;32305;46.410;17.394;2023-06-10T06:41:39;19.20;61.10
43561;DHT22;32305;46.410;17.394;2023-06-10T06:44:06;19.10;61.30
43561;DHT22;32305;46.410;17.394;2023-06-10T06:46:33;19.10;61.90
43561;DHT22;32305;46.410;17.394;2023-06-10T06:49:01;19.10;60.90
43561;DHT22;32305;46.410;17.394;2023-06-10T06:51:28;19.00;62.10
43561;DHT22;32305;46.410;17.394;2023-06-10T06:53:55;19.00;62.40
43561;DHT22;32305;46.410;17.394;2023-06-10T06:56:25;19.00;61.00
43561;DHT22;32305;46.410;17.394;2023-06-10T06:58:55;19.00;62.30
43561;DHT22;32305;46.410;17.394;2023-06-10T07:01:24;19.00;63.50
43561;DHT22;32305;46.410;17.394;2023-06-10T07:03:51;19.00;61.90
43561;DHT22;32305;46.410;17.394;2023-06-10T07:06:18;19.00;61.50
43561;DHT22;32305;46.410;17.394;2023-06-10T07:08:45;18.90;62.70
43561;DHT22;32305;46.410;17.394;2023-06-10T07:11:12;19.00;62.20
43561;DHT22;32305;46.410;17.394;2023-06-10T07:13:41;18.90;61.70
43561;DHT22;32305;46.410;17.394;2023-06-10T07:16:08;18.90;63.10
43561;DHT22;32305;46.410;17.394;2023-06-10T07:18:35;18.90;63.30
43561;DHT22;32305;46.410;17.394;2023-06-10T07:21:02;19.00;62.30
43561;DHT22;32305;46.410;17.394;2023-06-10T07:23:29;19.00;62.10
43561;DHT22;32305;46.410;17.394;2023-06-10T07:25:57;19.00;63.10
43561;DHT22;32305;46.410;17.394;2023-06-10T07:28:24;19.00;62.80
43561;DHT22;32305;46.410;17.394;2023-06-10T07:30:51;19.00;62.00
43561;DHT22;32305;46.410;17.394;2023-06-10T07:33:18;19.00;62.70
43561;DHT22;32305;46.410;17.394;2023-06-10T07:35:45;19.00;63.50
43561;DHT22;32305;46.410;17.394;2023-06-10T07:38:12;19.00;62.70
43561;DHT22;32305;46.410;17.394;2023-06-10T07:40:40;19.10;62.10
43561;DHT22;32305;46.410;17.394;2023-06-10T07:43:07;19.00;63.10
43561;DHT22;32305;46.410;17.394;2023-06-10T07:45:34;19.10;63.30
43561;DHT22;32305;46.410;17.394;2023-06-10T07:48:01;19.10;62.60
43561;DHT22;32305;46.410;17.394;2023-06-10T07:50:28;19.10;63.40
43561;DHT22;32305;46.410;17.394;2023-06-10T07:52:56;19.20;64.00
43561;DHT22;32305;46.410;17.394;2023-06-10T07:55:23;19.30;63.50
43561;DHT22;32305;46.410;17.394;2023-06-10T07:57:53;19.30;62.60
43561;DHT22;32305;46.410;17.394;2023-06-10T08:00:21;19.30;63.00
43561;DHT22;32305;46.410;17.394;2023-06-10T08:02:48;19.40;62.40
43561;DHT22;32305;46.410;17.394;2023-06-10T08:05:15;19.50;62.40
43561;DHT22;32305;46.410;17.394;2023-06-10T08:07:44;19.50;62.30
43561;DHT22;32305;46.410;17.394;2023-06-10T08:10:11;19.50;62.60
43561;DHT22;32305;46.410;17.394;2023-06-10T08:12:38;19.50;62.10
43561;DHT22;32305;46.410;17.394;2023-06-10T08:15:06;19.60;61.90
43561;DHT22;32305;46.410;17.394;2023-06-10T08:17:33;19.60;63.10
43561;DHT22;32305;46.410;17.394;2023-06-10T08:20:01;19.70;62.30
43561;DHT22;32305;46.410;17.394;2023-06-10T08:22:28;19.70;61.70
43561;DHT22;32305;46.410;17.394;2023-06-10T08:24:56;19.80;62.30
43561;DHT22;32305;46.410;17.394;2023-06-10T08:27:23;19.80;62.60
43561;DHT22;32305;46.410;17.394;2023-06-10T08:29:50;19.80;61.80
43561;DHT22;32305;46.410;17.394;2023-06-10T08:32:17;19.80;61.90
43561;DHT22;32305;46.410;17.394;2023-06-10T08:34:45;19.90;62.00
43561;DHT22;32305;46.410;17.394;2023-06-10T08:37:12;19.80;61.80
43561;DHT22;32305;46.410;17.394;2023-06-10T08:39:39;19.80;61.50
43561;DHT22;32305;46.410;17.394;2023-06-10T08:42:39;19.80;61.50
43561;DHT22;32305;46.410;17.394;2023-06-10T08:45:07;19.80;61.30
43561;DHT22;32305;46.410;17.394;2023-06-10T08:47:39;19.80;61.70
43561;DHT22;32305;46.410;17.394;2023-06-10T08:50:08;19.70;62.00
43561;DHT22;32305;46.410;17.394;2023-06-10T08:52:42;19.80;61.90
43561;DHT22;32305;46.410;17.394;2023-06-10T08:55:18;19.80;61.40
43561;DHT22;32305;46.410;17.394;2023-06-10T08:57:49;19.80;61.80
43561;DHT22;32305;46.410;17.394;2023-06-10T09:00:16;19.80;61.20
43561;DHT22;32305;46.410;17.394;2023-06-10T09:02:44;19.80;61.50
43561;DHT22;32305;46.410;17.394;2023-06-10T09:05:12;19.80;61.50
43561;DHT22;32305;46.410;17.394;2023-06-10T09:07:40;19.90;60.80
43561;DHT22;32305;46.410;17.394;2023-06-10T09:10:08;19.90;61.20
43561;DHT22;32305;46.410;17.394;2023-06-10T09:12:35;19.90;61.10
43561;DHT22;32305;46.410;17.394;2023-06-10T09:15:06;19.80;60.90
43561;DHT22;32305;46.410;17.394;2023-06-10T09:17:33;19.90;61.00
43561;DHT22;32305;46.410;17.394;2023-06-10T09:20:03;19.90;61.90
43561;DHT22;32305;46.410;17.394;2023-06-10T09:22:30;19.90;61.40
43561;DHT22;32305;46.410;17.394;2023-06-10T09:25:07;19.90;60.80
43561;DHT22;32305;46.410;17.394;2023-06-10T09:27:50;19.90;61.70
43561;DHT22;32305;46.410;17.394;2023-06-10T09:30:28;19.90;61.50
43561;DHT22;32305;46.410;17.394;2023-06-10T09:32:58;20.00;61.10
43561;DHT22;32305;46.410;17.394;2023-06-10T09:35:27;20.00;61.60
43561;DHT22;32305;46.410;17.394;2023-06-10T09:37:59;20.00;61.70
43561;DHT22;32305;46.410;17.394;2023-06-10T09:40:27;20.00;60.80
43561;DHT22;32305;46.410;17.394;2023-06-10T09:42:56;20.00;60.70
43561;DHT22;32305;46.410;17.394;2023-06-10T09:45:30;20.00;61.10
43561;DHT22;32305;46.410;17.394;2023-06-10T09:48:01;20.00;61.20
43561;DHT22;32305;46.410;17.394;2023-06-10T09:50:33;20.00;60.70
43561;DHT22;32305;46.410;17.394;2023-06-10T09:53:00;20.10;61.00
43561;DHT22;32305;46.410;17.394;2023-06-10T09:55:33;20.00;60.60
43561;DHT22;32305;46.410;17.394;2023-06-10T09:58:03;20.10;60.80
43561;DHT22;32305;46.410;17.394;2023-06-10T10:00:34;20.10;60.50
43561;DHT22;32305;46.410;17.394;2023-06-10T10:03:01;20.10;60.50
43561;DHT22;32305;46.410;17.394;2023-06-10T10:05:29;20.10;60.50
43561;DHT22;32305;46.410;17.394;2023-06-10T10:07:56;20.10;60.20
43561;DHT22;32305;46.410;17.394;2023-06-10T10:10:24;20.10;60.00
43561;DHT22;32305;46.410;17.394;2023-06-10T10:12:54;20.10;60.20
43561;DHT22;32305;46.410;17.394;2023-06-10T10:15:29;20.10;60.00
43561;DHT22;32305;46.410;17.394;2023-06-10T10:18:06;20.10;60.00
43561;DHT22;32305;46.410;17.394;2023-06-10T10:20:35;20.10;60.80
43561;DHT22;32305;46.410;17.394;2023-06-10T10:23:05;20.10;60.40
43561;DHT22;32305;46.410;17.394;2023-06-10T10:25:38;20.10;60.10
43561;DHT22;32305;46.410;17.394;2023-06-10T10:28:09;20.20;60.30
43561;DHT22;32305;46.410;17.394;2023-06-10T10:30:42;20.20;60.20
43561;DHT22;32305;46.410;17.394;2023-06-10T10:33:13;20.20;59.70
43561;DHT22;32305;46.410;17.394;2023-06-10T10:35:43;20.20;59.60
43561;DHT22;32305;46.410;17.394;2023-06-10T10:38:12;20.20;60.30
43561;DHT22;32305;46.410;17.394;2023-06-10T10:40:40;20.30;60.60
43561;DHT22;32305;46.410;17.394;2023-06-10T10:43:08;20.30;60.30
43561;DHT22;32305;46.410;17.394;2023-06-10T10:45:36;20.30;60.50
43561;DHT22;32305;46.410;17.394;2023-06-10T10:48:08;20.30;60.30
43561;DHT22;32305;46.410;17.394;2023-06-10T10:50:39;20.30;60.00
43561;DHT22;32305;46.410;17.394;2023-06-10T10:53:08;20.30;60.40
43561;DHT22;32305;46.410;17.394;2023-06-10T10:55:35;20.40;60.60
43561;DHT22;32305;46.410;17.394;2023-06-10T10:58:07;20.40;60.20
43561;DHT22;32305;46.410;17.394;2023-06-10T11:00:36;20.40;59.50
43561;DHT22;32305;46.410;17.394;2023-06-10T11:03:06;20.40;59.80
43561;DHT22;32305;46.410;17.394;2023-06-10T11:05:43;20.40;59.80
43561;DHT22;32305;46.410;17.394;2023-06-10T11:08:46;20.40;59.40
43561;DHT22;32305;46.410;17.394;2023-06-10T11:11:19;20.30;59.30
43561;DHT22;32305;46.410;17.394;2023-06-10T11:14:07;20.30;59.50
43561;DHT22;32305;46.410;17.394;2023-06-10T11:16:42;20.30;59.80
43561;DHT22;32305;46.410;17.394;2023-06-10T11:19:09;20.20;59.90
43561;DHT22;32305;46.410;17.394;2023-06-10T11:21:57;20.20;60.30
43561;DHT22;32305;46.410;17.394;2023-06-10T11:24:25;20.20;60.90
43561;DHT22;32305;46.410;17.394;2023-06-10T11:26:53;20.20;60.10
43561;DHT22;32305;46.410;17.394;2023-06-10T11:29:20;20.20;60.00
43561;DHT22;32305;46.410;17.394;2023-06-10T11:31:51;20.20;60.70
43561;DHT22;32305;46.410;17.394;2023-06-10T11:34:23;20.20;60.70
43561;DHT22;32305;46.410;17.394;2023-06-10T11:36:52;20.30;60.20
43561;DHT22;32305;46.410;17.394;2023-06-10T11:39:20;20.20;60.50
43561;DHT22;32305;46.410;17.394;2023-06-10T11:41:51;20.30;60.10
43561;DHT22;32305;46.410;17.394;2023-06-10T11:44:18;20.30;60.40
43561;DHT22;32305;46.410;17.394;2023-06-10T11:46:48;20.30;60.60
43561;DHT22;32305;46.410;17.394;2023-06-10T11:49:16;20.30;60.30
43561;DHT22;32305;46.410;17.394;2023-06-10T11:51:43;20.30;60.00
43561;DHT22;32305;46.410;17.394;2023-06-10T11:54:21;20.30;60.80
43561;DHT22;32305;46.410;17.394;2023-06-10T11:56:49;20.30;60.90
43561;DHT22;32305;46.410;17.394;2023-06-10T11:59:17;20.40;60.40
43561;DHT22;32305;46.410;17.394;2023-06-10T12:01:45;20.40;60.60
43561;DHT22;32305;46.410;17.394;2023-06-10T12:04:14;20.40;60.90
43561;DHT22;32305;46.410;17.394;2023-06-10T12:06:51;20.40;61.20
43561;DHT22;32305;46.410;17.394;2023-06-10T12:09:29;20.40;61.00
43561;DHT22;32305;46.410;17.394;2023-06-10T12:12:04;20.50;60.40
43561;DHT22;32305;46.410;17.394;2023-06-10T12:14:56;20.50;60.20
43561;DHT22;32305;46.410;17.394;2023-06-10T12:17:37;20.50;59.60
43561;DHT22;32305;46.410;17.394;2023-06-10T12:20:07;20.50;59.60
43561;DHT22;32305;46.410;17.394;2023-06-10T12:22:42;20.40;59.70
43561;DHT22;32305;46.410;17.394;2023-06-10T12:25:11;20.40;60.10
43561;DHT22;32305;46.410;17.394;2023-06-10T12:27:41;20.40;60.50
43561;DHT22;32305;46.410;17.394;2023-06-10T12:30:19;20.30;60.60
43561;DHT22;32305;46.410;17.394;2023-06-10T12:32:47;20.30;60.40
43561;DHT22;32305;46.410;17.394;2023-06-10T12:35:20;20.30;60.50
43561;DHT22;32305;46.410;17.394;2023-06-10T12:38:03;20.30;60.90
43561;DHT22;32305;46.410;17.394;2023-06-10T12:40:34;20.30;60.70
43561;DHT22;32305;46.410;17.394;2023-06-10T12:43:02;20.30;60.80
43561;DHT22;32305;46.410;17.394;2023-06-10T12:45:34;20.30;59.90
43561;DHT22;32305;46.410;17.394;2023-06-10T12:48:23;20.30;60.30
43561;DHT22;32305;46.410;17.394;2023-06-10T12:50:56;20.30;60.20
43561;DHT22;32305;46.410;17.394;2023-06-10T12:53:24;20.30;61.10
43561;DHT22;32305;46.410;17.394;2023-06-10T12:55:53;20.30;60.40
43561;DHT22;32305;46.410;17.394;2023-06-10T12:58:21;20.30;60.00
43561;DHT22;32305;46.410;17.394;2023-06-10T13:00:49;20.30;60.60
43561;DHT22;32305;46.410;17.394;2023-06-10T13:03:20;20.30;60.40
43561;DHT22;32305;46.410;17.394;2023-06-10T13:05:47;20.30;60.00
43561;DHT22;32305;46.410;17.394;2023-06-10T13:08:15;20.40;60.50
43561;DHT22;32305;46.410;17.394;2023-06-10T13:10:42;20.40;60.30
43561;DHT22;32305;46.410;17.394;2023-06-10T13:13:10;20.40;60.10
43561;DHT22;32305;46.410;17.394;2023-06-10T13:15:37;20.40;60.10
43561;DHT22;32305;46.410;17.394;2023-06-10T13:18:09;20.40;59.60
43561;DHT22;32305;46.410;17.394;2023-06-10T13:20:37;20.40;59.70
43561;DHT22;32305;46.410;17.394;2023-06-10T13:23:04;20.40;59.70
43561;DHT22;32305;46.410;17.394;2023-06-10T13:25:31;20.40;60.00
43561;DHT22;32305;46.410;17.394;2023-06-10T13:27:59;20.40;59.70
43561;DHT22;32305;46.410;17.394;2023-06-10T13:30:26;20.30;59.90
43561;DHT22;32305;46.410;17.394;2023-06-10T13:32:53;20.30;60.00
43561;DHT22;32305;46.410;17.394;2023-06-10T13:35:20;20.30;60.20
43561;DHT22;32305;46.410;17.394;2023-06-10T13:37:48;20.30;59.80
43561;DHT22;32305;46.410;17.394;2023-06-10T13:40:15;20.40;59.80
43561;DHT22;32305;46.410;17.394;2023-06-10T13:42:46;20.30;59.50
43561;DHT22;32305;46.410;17.394;2023-06-10T13:45:17;20.30;60.00
43561;DHT22;32305;46.410;17.394;2023-06-10T13:47:45;20.30;60.00
43561;DHT22;32305;46.410;17.394;2023-06-10T13:50:12;20.30;59.70
43561;DHT22;32305;46.410;17.394;2023-06-10T13:52:40;20.30;60.20
43561;DHT22;32305;46.410;17.394;2023-06-10T13:55:07;20.30;59.80
43561;DHT22;32305;46.410;17.394;2023-06-10T13:57:35;20.30;60.00
43561;DHT22;32305;46.410;17.394;2023-06-10T14:00:03;20.20;60.00
43561;DHT22;32305;46.410;17.394;2023-06-10T14:02:31;20.30;60.00
43561;DHT22;32305;46.410;17.394;2023-06-10T14:04:58;20.40;67.10
43561;DHT22;32305;46.410;17.394;2023-06-10T14:07:25;20.70;69.40
43561;DHT22;32305;46.410;17.394;2023-06-10T14:09:52;21.10;70.10
43561;DHT22;32305;46.410;17.394;2023-06-10T14:12:20;21.50;69.90
43561;DHT22;32305;46.410;17.394;2023-06-10T14:14:47;21.90;69.50
43561;DHT22;32305;46.410;17.394;2023-06-10T14:17:14;22.20;69.20
43561;DHT22;32305;46.410;17.394;2023-06-10T14:19:41;22.50;69.00
43561;DHT22;32305;46.410;17.394;2023-06-10T14:22:08;22.80;68.70
43561;DHT22;32305;46.410;17.394;2023-06-10T14:24:36;23.00;68.60
43561;DHT22;32305;46.410;17.394;2023-06-10T14:27:04;23.20;68.20
43561;DHT22;32305;46.410;17.394;2023-06-10T14:29:32;23.40;67.90
43561;DHT22;32305;46.410;17.394;2023-06-10T14:32:00;23.60;67.70
43561;DHT22;32305;46.410;17.394;2023-06-10T14:34:27;23.70;67.50
43561;DHT22;32305;46.410;17.394;2023-06-10T14:36:56;23.90;67.40
43561;DHT22;32305;46.410;17.394;2023-06-10T14:39:23;24.00;67.10
43561;DHT22;32305;46.410;17.394;2023-06-10T14:41:50;24.10;67.10
43561;DHT22;32305;46.410;17.394;2023-06-10T14:44:19;24.20;67.00
43561;DHT22;32305;46.410;17.394;2023-06-10T14:46:46;24.30;66.90
43561;DHT22;32305;46.410;17.394;2023-06-10T14:49:14;24.40;66.90
43561;DHT22;32305;46.410;17.394;2023-06-10T14:51:42;24.50;66.80
43561;DHT22;32305;46.410;17.394;2023-06-10T14:54:10;24.50;66.50
43561;DHT22;32305;46.410;17.394;2023-06-10T14:56:37;24.60;66.30
43561;DHT22;32305;46.410;17.394;2023-06-10T14:59:04;24.70;66.30
43561;DHT22;32305;46.410;17.394;2023-06-10T15:01:32;24.70;66.20
43561;DHT22;32305;46.410;17.394;2023-06-10T15:04:12;24.80;66.00
43561;DHT22;32305;46.410;17.394;2023-06-10T15:06:40;24.90;65.90
43561;DHT22;32305;46.410;17.394;2023-06-10T15:09:21;24.90;65.60
43561;DHT22;32305;46.410;17.394;2023-06-10T15:11:48;25.00;65.50
43561;DHT22;32305;46.410;17.394;2023-06-10T15:14:15;25.00;65.00
43561;DHT22;32305;46.410;17.394;2023-06-10T15:16:42;25.10;64.90
43561;DHT22;32305;46.410;17.394;2023-06-10T15:19:10;25.20;64.60
43561;DHT22;32305;46.410;17.394;2023-06-10T15:21:37;25.20;64.30
43561;DHT22;32305;46.410;17.394;2023-06-10T15:24:07;25.30;63.90
43561;DHT22;32305;46.410;17.394;2023-06-10T15:26:34;25.40;63.60
43561;DHT22;32305;46.410;17.394;2023-06-10T15:29:02;25.40;62.90
43561;DHT22;32305;46.410;17.394;2023-06-10T15:31:31;25.50;62.50